Time;durP1;ratioP1;P1;durP2;ratioP2;P2;SDS_P1;SDS_P2;PMS_P1;PMS_P2;Temp;Humidity;BMP_temperature;BMP_pressure;BME280_temperature;BME280_humidity;BME280_pressure;Samples;Min_cycle;Max_cycle;Signal;HPM_P1;HPM_P2
2023/04/30 00:01:37;;;;;;;6.35;4.85;;;;;;;15.63;60.06;99585.41;4337636;32;22679;-94
2023/04/30 00:04:03;;;;;;;10.50;4.87;;;;;;;15.58;60.05;99574.28;4338049;32;20355;-93
2023/04/30 00:06:28;;;;;;;8.13;4.93;;;;;;;15.64;60.05;99581.00;4337782;32;20095;-92
2023/04/30 00:08:53;;;;;;;8.65;4.87;;;;;;;15.62;60.06;99580.25;4337804;32;20421;-92
2023/04/30 00:11:19;;;;;;;8.45;4.55;;;;;;;15.48;60.05;99583.56;4338588;32;24858;-92
2023/04/30 00:13:45;;;;;;;8.32;5.15;;;;;;;15.34;60.03;99584.31;4339398;32;20090;-92
2023/04/30 00:16:10;;;;;;;6.70;4.90;;;;;;;15.24;60.03;99583.13;4339111;32;20147;-92
2023/04/30 00:18:37;;;;;;;10.10;5.20;;;;;;;15.13;60.02;99584.63;4339139;32;20150;-93
2023/04/30 00:21:02;;;;;;;9.82;5.15;;;;;;;15.15;60.02;99581.00;4339312;32;20193;-92
2023/04/30 00:23:28;;;;;;;8.57;5.20;;;;;;;14.98;60.01;99587.16;4340237;32;20103;-90
2023/04/30 00:25:53;;;;;;;9.00;5.32;;;;;;;15.05;60.02;99587.66;4341881;32;20484;-92
2023/04/30 00:28:18;;;;;;;9.77;5.72;;;;;;;14.92;60.01;99586.62;4339882;32;24364;-94
2023/04/30 00:30:44;;;;;;;11.05;5.70;;;;;;;14.83;60.00;99587.09;4339538;32;20202;-93
2023/04/30 00:33:10;;;;;;;9.10;6.03;;;;;;;14.86;60.02;99582.53;4365543;32;20107;-94
2023/04/30 00:35:35;;;;;;;11.12;5.47;;;;;;;14.76;60.00;99589.19;4340241;32;20115;-92
2023/04/30 00:38:00;;;;;;;9.50;5.43;;;;;;;14.72;60.00;99585.03;4327685;32;20111;-93
2023/04/30 00:40:26;;;;;;;8.88;5.87;;;;;;;14.67;60.00;99592.28;4340218;32;20110;-94
2023/04/30 00:42:54;;;;;;;13.05;6.10;;;;;;;14.74;60.00;99586.66;4340529;32;20166;-96
2023/04/30 00:45:21;;;;;;;8.82;5.75;;;;;;;14.81;60.00;99589.78;4339752;32;20113;-95
2023/04/30 00:47:46;;;;;;;9.25;5.12;;;;;;;14.65;60.00;99586.25;4352601;32;20141;-93
2023/04/30 00:50:14;;;;;;;9.65;5.87;;;;;;;15.07;60.02;99582.34;4354894;32;20110;-93
2023/04/30 00:52:43;;;;;;;9.32;5.90;;;;;;;14.65;60.00;99586.25;4355474;32;20099;-93
2023/04/30 00:55:12;;;;;;;9.00;6.00;;;;;;;14.30;59.97;99582.78;4342400;32;20146;-92
2023/04/30 00:57:37;;;;;;;9.60;5.82;;;;;;;14.33;59.98;99583.47;4342371;32;20138;-93
2023/04/30 01:00:03;;;;;;;11.05;5.22;;;;;;;14.30;59.97;99583.63;4343161;32;20480;-94
2023/04/30 01:02:29;;;;;;;9.45;6.05;;;;;;;14.43;59.98;99576.00;4342714;32;20758;-95
2023/04/30 01:04:55;;;;;;;8.13;5.97;;;;;;;14.37;59.98;99571.06;4343143;32;20109;-94
2023/04/30 01:07:20;;;;;;;10.38;6.15;;;;;;;14.35;59.98;99572.91;4355194;32;20118;-94
2023/04/30 01:09:46;;;;;;;10.55;6.32;;;;;;;14.14;59.97;99572.22;4354507;32;20208;-94
2023/04/30 01:12:20;;;;;;;10.02;6.25;;;;;;;14.20;59.97;99569.31;4355181;32;20114;-95
2023/04/30 01:15:08;;;;;;;13.15;6.78;;;;;;;14.16;59.97;99574.75;4342947;32;20116;-95
2023/04/30 01:17:38;;;;;;;9.00;5.70;;;;;;;14.02;59.95;99580.69;4354760;32;20170;-96
2023/04/30 01:20:04;;;;;;;8.85;5.95;;;;;;;13.91;59.96;99581.19;4342838;32;20134;-96
2023/04/30 01:23:03;;;;;;;7.90;6.03;;;;;;;13.90;59.96;99576.88;4355416;32;20157;-95
2023/04/30 01:25:49;;;;;;;13.43;6.28;;;;;;;13.88;59.96;99581.34;4354937;32;20215;-93
2023/04/30 01:28:15;;;;;;;9.57;6.37;;;;;;;13.78;59.95;99588.78;4367272;32;20126;-93
2023/04/30 01:30:43;;;;;;;9.88;6.82;;;;;;;13.79;59.95;99587.03;4342106;32;20126;-95
2023/04/30 01:33:09;;;;;;;11.95;6.78;;;;;;;13.71;59.94;99583.91;4342375;32;20116;-93
2023/04/30 01:35:58;;;;;;;10.65;6.37;;;;;;;13.71;59.94;99586.50;4353585;32;20109;-93
2023/04/30 01:38:40;;;;;;;9.32;5.53;;;;;;;13.81;59.96;99572.94;4349503;32;20158;-92
2023/04/30 01:41:21;;;;;;;7.95;5.25;;;;;;;13.77;59.94;99591.47;4341892;32;20103;-92
2023/04/30 01:43:53;;;;;;;9.38;5.25;;;;;;;13.90;59.96;99582.09;4379490;32;20153;-92
2023/04/30 01:46:27;;;;;;;6.97;5.60;;;;;;;13.80;59.95;99586.94;4377754;32;20107;-91
2023/04/30 01:49:05;;;;;;;9.43;5.93;;;;;;;13.82;59.95;99586.88;4378502;32;20111;-92
2023/04/30 01:51:40;;;;;;;9.98;5.20;;;;;;;13.68;59.94;99584.91;4365587;32;20125;-93
2023/04/30 01:54:15;;;;;;;9.48;6.55;;;;;;;13.64;59.95;99588.56;4365705;32;20095;-91
2023/04/30 01:56:43;;;;;;;9.40;5.55;;;;;;;13.67;59.94;99591.03;4354623;32;20075;-94
2023/04/30 01:59:08;;;;;;;10.02;5.65;;;;;;;13.51;59.94;99592.72;4342288;32;20133;-95
2023/04/30 02:01:34;;;;;;;8.68;5.53;;;;;;;13.68;59.94;99592.75;4354365;32;20094;-95
2023/04/30 02:04:00;;;;;;;9.57;5.97;;;;;;;13.54;59.93;99594.31;4355354;32;20143;-92
2023/04/30 02:06:28;;;;;;;9.13;6.43;;;;;;;13.52;59.94;99597.00;4366378;32;20118;-90
2023/04/30 02:08:55;;;;;;;9.18;5.75;;;;;;;13.31;59.92;99598.00;4365658;32;20121;-90
2023/04/30 02:11:23;;;;;;;10.23;5.90;;;;;;;13.22;59.92;99591.41;4365204;32;20118;-90
2023/04/30 02:13:49;;;;;;;11.18;5.97;;;;;;;13.31;59.92;99605.84;4365332;32;20116;-90
2023/04/30 02:16:14;;;;;;;11.80;5.90;;;;;;;13.44;59.93;99599.97;4365412;32;20099;-91
2023/04/30 02:18:40;;;;;;;10.00;5.82;;;;;;;13.29;59.92;99597.22;4353290;32;20106;-92
2023/04/30 02:21:05;;;;;;;10.30;5.85;;;;;;;13.23;59.92;99602.72;4365559;32;20149;-91
2023/04/30 02:23:30;;;;;;;13.88;6.90;;;;;;;13.14;59.91;99596.94;4377838;32;20137;-91
2023/04/30 02:25:56;;;;;;;8.23;6.43;;;;;;;13.24;59.92;99594.78;4340926;32;20186;-90
2023/04/30 02:28:21;;;;;;;13.68;6.80;;;;;;;13.16;59.92;99595.13;4353353;32;22184;-92
2023/04/30 02:30:47;;;;;;;10.20;6.30;;;;;;;13.14;59.92;99599.56;4353071;32;20160;-91
2023/04/30 02:33:12;;;;;;;9.90;6.47;;;;;;;13.14;59.92;99594.34;4351577;32;20114;-91
2023/04/30 02:35:40;;;;;;;9.93;6.75;;;;;;;12.76;59.89;99601.25;4365258;32;20107;-90
2023/04/30 02:38:05;;;;;;;9.93;6.50;;;;;;;13.00;59.90;99598.47;4365346;32;20166;-90
2023/04/30 02:40:30;;;;;;;10.40;6.95;;;;;;;12.91;59.90;99600.59;4352427;32;20442;-89
2023/04/30 02:42:56;;;;;;;11.82;7.45;;;;;;;12.72;59.88;99602.28;4377577;32;20129;-89
2023/04/30 02:45:21;;;;;;;14.75;7.90;;;;;;;12.74;59.90;99607.44;4352279;32;20143;-92
2023/04/30 02:47:47;;;;;;;13.25;7.93;;;;;;;13.00;59.91;99608.91;4353140;32;20170;-93
2023/04/30 02:50:13;;;;;;;13.40;8.05;;;;;;;13.05;59.91;99605.22;4353063;32;20141;-93
2023/04/30 02:52:39;;;;;;;11.27;7.28;;;;;;;12.93;59.90;99608.34;4340624;32;20102;-93
2023/04/30 02:55:05;;;;;;;15.45;7.65;;;;;;;12.96;59.91;99607.38;4340784;32;20102;-91
2023/04/30 02:57:30;;;;;;;13.80;8.13;;;;;;;12.94;59.91;99614.44;4340740;32;20115;-93
2023/04/30 02:59:55;;;;;;;16.55;8.90;;;;;;;12.76;59.90;99621.28;4352778;32;20161;-93
2023/04/30 03:02:22;;;;;;;12.40;8.68;;;;;;;12.83;59.90;99622.75;4352684;32;20456;-90
2023/04/30 03:04:48;;;;;;;14.32;8.73;;;;;;;12.72;59.88;99625.78;4353609;32;20495;-94
2023/04/30 03:07:13;;;;;;;16.87;9.85;;;;;;;12.70;59.89;99621.56;4341232;32;20131;-90
2023/04/30 03:09:39;;;;;;;13.40;8.98;;;;;;;12.89;59.90;99617.25;4351998;32;31369;-91
2023/04/30 03:12:04;;;;;;;15.00;8.68;;;;;;;12.91;59.90;99615.41;4365297;32;20110;-91
2023/04/30 03:14:30;;;;;;;14.82;9.05;;;;;;;13.17;59.91;99614.25;4340126;32;20421;-92
2023/04/30 03:16:55;;;;;;;12.68;8.60;;;;;;;13.17;59.91;99619.47;4352756;32;20389;-92
2023/04/30 03:19:24;;;;;;;17.60;9.45;;;;;;;13.11;59.90;99615.38;4352211;32;20131;-92
2023/04/30 03:21:50;;;;;;;14.45;9.40;;;;;;;13.12;59.92;99608.41;4341016;32;20120;-93
2023/04/30 03:24:15;;;;;;;14.02;9.23;;;;;;;13.09;59.91;99609.38;4352919;32;20125;-93
2023/04/30 03:26:41;;;;;;;14.38;9.50;;;;;;;13.06;59.91;99622.59;4352231;32;20510;-91
2023/04/30 03:29:06;;;;;;;15.77;9.68;;;;;;;13.06;59.91;99614.75;4352396;32;20495;-92
2023/04/30 03:31:32;;;;;;;16.35;10.10;;;;;;;13.03;59.91;99621.88;4340150;32;20453;-91
2023/04/30 03:33:57;;;;;;;18.62;10.45;;;;;;;13.04;59.91;99621.81;4352400;32;20544;-89
2023/04/30 03:36:22;;;;;;;15.88;10.57;;;;;;;12.87;59.89;99624.31;4377930;32;21464;-91
2023/04/30 03:38:48;;;;;;;16.67;10.77;;;;;;;13.01;59.90;99610.63;4364821;32;20128;-90
2023/04/30 03:41:13;;;;;;;14.75;10.40;;;;;;;13.07;59.91;99620.81;4377228;32;20146;-91
2023/04/30 03:43:39;;;;;;;16.77;10.57;;;;;;;13.03;59.91;99620.13;4353493;32;25316;-90
2023/04/30 03:46:04;;;;;;;22.27;10.80;;;;;;;13.04;59.91;99621.81;4365865;32;20106;-91
2023/04/30 03:48:30;;;;;;;16.02;10.68;;;;;;;13.25;59.91;99627.00;4352914;32;20151;-91
2023/04/30 03:50:55;;;;;;;14.32;10.20;;;;;;;13.47;59.92;99622.50;4352215;32;20121;-90
2023/04/30 03:53:21;;;;;;;16.52;10.60;;;;;;;13.36;59.92;99619.53;4364210;32;20569;-91
2023/04/30 03:55:48;;;;;;;14.90;9.57;;;;;;;13.19;59.91;99621.13;4352015;32;20199;-91
2023/04/30 03:58:14;;;;;;;16.67;10.95;;;;;;;13.33;59.92;99625.75;4340010;32;20102;-90
2023/04/30 04:00:40;;;;;;;17.25;10.48;;;;;;;13.18;59.91;99621.22;4351909;32;20180;-90
2023/04/30 04:03:06;;;;;;;17.52;10.90;;;;;;;13.09;59.90;99627.69;4351824;32;20091;-90
2023/04/30 04:05:31;;;;;;;19.23;10.68;;;;;;;13.11;59.90;99638.91;4351591;32;20161;-89
2023/04/30 04:07:57;;;;;;;17.12;10.95;;;;;;;13.06;59.91;99638.28;4352101;32;20523;-90
2023/04/30 04:10:22;;;;;;;20.48;10.90;;;;;;;13.08;59.90;99639.03;4363972;32;20804;-90
2023/04/30 04:12:47;;;;;;;19.85;12.10;;;;;;;13.24;59.91;99641.00;4351413;32;20158;-92
2023/04/30 04:15:13;;;;;;;16.42;11.82;;;;;;;13.43;59.93;99640.09;4351473;32;20133;-91
2023/04/30 04:17:38;;;;;;;18.87;11.85;;;;;;;13.57;59.94;99649.94;4351305;32;20106;-91
2023/04/30 04:20:05;;;;;;;19.30;13.38;;;;;;;13.52;59.93;99644.09;4376733;32;20120;-89
2023/04/30 04:22:30;;;;;;;19.70;12.27;;;;;;;13.53;59.93;99653.62;4352089;32;20091;-90
2023/04/30 04:24:56;;;;;;;18.17;12.50;;;;;;;13.54;59.93;99655.31;4364030;32;20146;-89
2023/04/30 04:27:22;;;;;;;16.83;11.52;;;;;;;13.61;59.93;99656.72;4363952;32;20114;-90
2023/04/30 04:29:47;;;;;;;20.48;12.80;;;;;;;13.69;59.94;99659.81;4351915;32;20530;-91
2023/04/30 04:32:13;;;;;;;17.70;12.18;;;;;;;13.81;59.95;99658.44;4352025;32;20126;-89
2023/04/30 04:34:38;;;;;;;16.55;11.20;;;;;;;13.55;59.93;99664.88;4376431;32;20103;-89
2023/04/30 04:37:04;;;;;;;19.40;13.40;;;;;;;13.48;59.92;99669.50;4351344;32;20460;-89
2023/04/30 04:39:30;;;;;;;20.90;13.80;;;;;;;13.54;59.93;99673.63;4350899;32;20404;-89
2023/04/30 04:41:55;;;;;;;20.30;13.38;;;;;;;13.59;59.94;99671.66;4375788;32;20132;-89
2023/04/30 04:44:21;;;;;;;19.23;13.40;;;;;;;13.68;59.94;99670.38;4363475;32;20149;-90
2023/04/30 04:46:47;;;;;;;20.33;13.20;;;;;;;13.68;59.93;99673.81;4377215;32;20165;-89
2023/04/30 04:49:12;;;;;;;19.67;13.35;;;;;;;13.74;59.94;99670.97;4363643;32;20185;-86
2023/04/30 04:51:38;;;;;;;23.38;15.55;;;;;;;13.66;59.94;99680.06;4376402;32;28701;-88
2023/04/30 04:54:04;;;;;;;25.55;14.32;;;;;;;13.81;59.95;99677.59;4375937;32;20106;-89
2023/04/30 04:56:29;;;;;;;22.40;14.63;;;;;;;13.77;59.95;99680.44;4364586;32;20166;-88
2023/04/30 04:58:55;;;;;;;21.73;14.13;;;;;;;13.68;59.94;99683.44;4352642;32;24033;-88
2023/04/30 05:01:21;;;;;;;22.23;14.20;;;;;;;13.80;59.95;99682.91;4365059;32;20099;-87
2023/04/30 05:03:47;;;;;;;19.90;14.00;;;;;;;13.81;59.95;99688.06;4352864;32;20142;-86
2023/04/30 05:06:12;;;;;;;20.75;13.02;;;;;;;13.87;59.94;99691.31;4365623;32;20130;-88
2023/04/30 05:08:38;;;;;;;21.70;13.60;;;;;;;13.91;59.96;99698.09;4365230;32;20090;-88
2023/04/30 05:11:03;;;;;;;19.60;13.15;;;;;;;13.81;59.95;99695.06;4377531;32;25061;-87
2023/04/30 05:13:29;;;;;;;18.70;12.05;;;;;;;13.80;59.95;99693.34;4365002;32;25067;-88
2023/04/30 05:15:54;;;;;;;16.33;11.40;;;;;;;13.92;59.95;99712.88;4352876;32;20151;-87
2023/04/30 05:18:20;;;;;;;17.15;11.88;;;;;;;13.69;59.94;99704.28;4365438;32;20098;-88
2023/04/30 05:20:45;;;;;;;19.75;12.65;;;;;;;13.88;59.95;99709.53;4353073;32;20105;-88
2023/04/30 05:23:11;;;;;;;16.95;11.60;;;;;;;13.80;59.95;99707.28;4341460;32;25433;-88
2023/04/30 05:25:36;;;;;;;13.50;10.32;;;;;;;13.93;59.94;99719.78;4366396;32;20182;-88
2023/04/30 05:28:02;;;;;;;13.90;9.73;;;;;;;14.26;59.97;99713.00;4364855;32;27437;-88
2023/04/30 05:30:28;;;;;;;15.05;11.20;;;;;;;14.45;59.98;99715.62;4365354;32;20143;-87
2023/04/30 05:32:55;;;;;;;16.15;10.27;;;;;;;14.45;59.98;99717.38;4365413;32;20195;-87
2023/04/30 05:35:20;;;;;;;14.23;9.95;;;;;;;14.50;59.98;99716.25;4340820;32;20178;-87
2023/04/30 05:37:46;;;;;;;13.80;10.05;;;;;;;14.23;59.97;99713.16;4364851;32;32849;-89
2023/04/30 05:40:12;;;;;;;13.60;10.30;;;;;;;14.39;59.97;99714.09;4352866;32;20137;-87
2023/04/30 05:42:39;;;;;;;12.82;9.52;;;;;;;14.47;59.98;99710.31;4377790;32;20818;-88
2023/04/30 05:45:05;;;;;;;17.58;10.85;;;;;;;14.36;59.97;99727.34;4379190;32;20136;-88
2023/04/30 05:47:31;;;;;;;15.40;10.55;;;;;;;14.27;59.97;99717.31;4377844;32;20109;-88
2023/04/30 05:49:56;;;;;;;14.82;9.45;;;;;;;14.26;59.98;99722.62;4377556;32;20158;-88
2023/04/30 05:52:22;;;;;;;17.52;10.57;;;;;;;14.28;59.97;99724.25;4352964;32;20436;-88
2023/04/30 05:54:47;;;;;;;15.00;10.43;;;;;;;14.29;59.97;99720.69;4365501;32;20140;-87
2023/04/30 05:57:13;;;;;;;16.15;10.93;;;;;;;14.31;59.97;99723.25;4365153;32;20148;-88
2023/04/30 05:59:38;;;;;;;14.45;10.23;;;;;;;14.47;59.98;99719.00;4352701;32;20150;-88
2023/04/30 06:02:03;;;;;;;14.27;9.85;;;;;;;14.75;59.99;99718.50;4352902;32;20122;-88
2023/04/30 06:04:29;;;;;;;15.40;10.27;;;;;;;14.83;60.00;99713.72;4377124;32;30252;-88
2023/04/30 06:06:55;;;;;;;13.27;9.45;;;;;;;14.86;60.00;99723.19;4377532;32;20090;-88
2023/04/30 06:09:20;;;;;;;13.65;9.63;;;;;;;15.13;60.01;99724.41;4340493;32;20129;-88
2023/04/30 06:11:49;;;;;;;16.37;10.30;;;;;;;15.15;60.01;99719.97;4377740;32;20504;-87
2023/04/30 06:14:17;;;;;;;13.13;9.32;;;;;;;15.26;60.02;99722.03;4377745;32;20230;-88
2023/04/30 06:16:45;;;;;;;12.73;9.38;;;;;;;15.43;60.03;99721.16;4365683;32;20499;-88
2023/04/30 06:19:11;;;;;;;12.65;9.77;;;;;;;15.55;60.04;99720.50;4364526;32;27825;-88
2023/04/30 06:21:36;;;;;;;13.48;9.43;;;;;;;15.75;60.05;99715.06;4365046;32;20186;-87
2023/04/30 06:24:02;;;;;;;14.70;10.65;;;;;;;15.95;60.06;99716.63;4365203;32;20129;-88
2023/04/30 06:26:28;;;;;;;13.55;9.10;;;;;;;16.05;60.06;99711.72;4365131;32;20158;-88
2023/04/30 06:28:53;;;;;;;12.57;9.23;;;;;;;16.20;60.07;99714.34;4340274;32;20103;-88
2023/04/30 06:31:18;;;;;;;14.15;9.15;;;;;;;16.16;60.07;99715.47;4378609;32;20135;-89
2023/04/30 06:33:44;;;;;;;12.15;9.18;;;;;;;16.16;60.08;99712.81;4365107;32;20110;-87
2023/04/30 06:36:09;;;;;;;14.60;8.90;;;;;;;16.23;60.08;99702.81;4365157;32;20107;-88
2023/04/30 06:38:35;;;;;;;13.40;9.50;;;;;;;16.07;60.06;99713.31;4378834;32;20103;-87
2023/04/30 06:41:00;;;;;;;11.98;8.70;;;;;;;16.07;60.06;99710.69;4364968;32;20416;-87
2023/04/30 06:43:25;;;;;;;12.45;9.13;;;;;;;16.22;60.07;99709.00;4378706;32;20107;-87
2023/04/30 06:45:51;;;;;;;13.45;8.68;;;;;;;16.24;60.08;99710.59;4352201;32;20138;-88
2023/04/30 06:48:16;;;;;;;12.80;9.07;;;;;;;16.27;60.08;99713.06;4339632;32;33235;-88
2023/04/30 06:50:44;;;;;;;12.82;8.98;;;;;;;16.37;60.07;99709.94;4352653;32;20155;-88
2023/04/30 06:53:13;;;;;;;14.35;8.85;;;;;;;16.41;60.09;99716.72;4378718;32;20094;-88
2023/04/30 06:55:40;;;;;;;13.55;9.60;;;;;;;16.35;60.08;99710.03;4340505;32;20831;-89
2023/04/30 06:58:05;;;;;;;11.30;8.50;;;;;;;16.48;60.09;99718.87;4352343;32;20109;-87
2023/04/30 07:00:31;;;;;;;10.93;7.95;;;;;;;16.59;60.10;99726.19;4364642;32;20091;-87
2023/04/30 07:02:59;;;;;;;11.23;8.30;;;;;;;16.61;60.09;99732.19;4381710;32;20197;-87
2023/04/30 07:05:25;;;;;;;14.63;8.25;;;;;;;16.55;60.09;99722.00;4356154;32;20095;-88
2023/04/30 07:07:51;;;;;;;10.88;7.57;;;;;;;16.58;60.09;99729.75;4352361;32;20361;-87
2023/04/30 07:10:17;;;;;;;10.98;7.72;;;;;;;16.45;60.08;99731.34;4364902;32;20099;-86
2023/04/30 07:12:42;;;;;;;11.57;7.45;;;;;;;16.55;60.09;99722.00;4352010;32;20111;-88
2023/04/30 07:15:08;;;;;;;11.25;8.23;;;;;;;16.59;60.10;99726.19;4351815;32;20137;-87
2023/04/30 07:17:34;;;;;;;12.63;8.02;;;;;;;16.63;60.10;99716.34;4376820;32;20086;-88
2023/04/30 07:19:59;;;;;;;10.57;7.87;;;;;;;16.65;60.10;99714.47;4351079;32;20157;-86
2023/04/30 07:22:25;;;;;;;9.77;7.95;;;;;;;16.67;60.10;99710.84;4352251;32;20174;-88
2023/04/30 07:24:50;;;;;;;10.20;7.00;;;;;;;16.77;60.11;99714.62;4376656;32;20118;-87
2023/04/30 07:27:15;;;;;;;8.98;6.72;;;;;;;17.01;60.12;99711.50;4351583;32;29799;-87
2023/04/30 07:29:41;;;;;;;8.05;6.53;;;;;;;17.02;60.12;99711.41;4377736;32;20891;-87
2023/04/30 07:32:06;;;;;;;10.57;6.82;;;;;;;16.96;60.11;99713.56;4363886;32;22297;-88
2023/04/30 07:34:32;;;;;;;9.27;6.68;;;;;;;17.02;60.12;99710.56;4351167;32;20461;-87
2023/04/30 07:36:57;;;;;;;10.18;6.30;;;;;;;17.05;60.11;99711.25;4351574;32;20139;-88
2023/04/30 07:39:22;;;;;;;9.43;6.78;;;;;;;17.26;60.13;99708.25;4376592;32;20102;-87
2023/04/30 07:41:48;;;;;;;10.30;6.03;;;;;;;17.38;60.14;99716.25;4363228;32;26554;-88
2023/04/30 07:44:13;;;;;;;7.62;5.37;;;;;;;17.45;60.13;99714.09;4376232;32;20162;-89
2023/04/30 07:46:39;;;;;;;7.57;5.32;;;;;;;17.41;60.14;99715.22;4363834;32;23728;-90
2023/04/30 07:49:04;;;;;;;7.30;5.15;;;;;;;17.25;60.13;99715.28;4351678;32;35554;-86
2023/04/30 07:51:31;;;;;;;6.93;5.07;;;;;;;17.32;60.13;99721.91;4352097;32;20158;-87
2023/04/30 07:53:57;;;;;;;7.07;4.97;;;;;;;17.47;60.14;99725.38;4352020;32;20110;-88
2023/04/30 07:56:22;;;;;;;6.32;4.65;;;;;;;17.59;60.14;99729.91;4363761;32;34099;-87
2023/04/30 07:58:47;;;;;;;7.35;5.30;;;;;;;17.73;60.15;99723.81;4376269;32;27883;-87
2023/04/30 08:01:14;;;;;;;8.85;6.30;;;;;;;17.91;60.16;99721.81;4363938;32;20145;-88
2023/04/30 08:03:39;;;;;;;6.40;5.20;;;;;;;18.07;60.17;99717.28;4351753;32;20078;-88
2023/04/30 08:06:05;;;;;;;8.15;6.18;;;;;;;17.83;60.15;99711.78;4363668;32;20155;-87
2023/04/30 08:08:31;;;;;;;8.35;4.62;;;;;;;17.95;60.16;99720.69;4364152;32;20099;-91
2023/04/30 08:10:56;;;;;;;6.60;4.32;;;;;;;18.18;60.18;99711.34;4351007;32;30029;-89
2023/04/30 08:13:22;;;;;;;6.57;4.40;;;;;;;18.47;60.19;99715.59;4363833;32;20202;-89
2023/04/30 08:15:47;;;;;;;6.87;4.07;;;;;;;18.64;60.21;99710.06;4376078;32;24461;-88
2023/04/30 08:18:12;;;;;;;8.07;3.90;;;;;;;18.83;60.21;99708.88;4376389;32;20099;-86
2023/04/30 08:20:38;;;;;;;5.12;3.58;;;;;;;19.14;60.23;99718.19;4377009;32;30108;-89
2023/04/30 08:23:03;;;;;;;4.35;3.00;;;;;;;19.13;60.23;99705.94;4363538;32;20778;-89
2023/04/30 08:25:30;;;;;;;3.70;2.42;;;;;;;19.33;60.24;99695.72;4351642;32;20087;-89
2023/04/30 08:27:55;;;;;;;4.18;2.62;;;;;;;19.57;60.25;99705.56;4351550;32;20128;-89
2023/04/30 08:30:21;;;;;;;4.10;2.80;;;;;;;19.59;60.25;99701.88;4375692;32;35223;-88
2023/04/30 08:32:46;;;;;;;5.25;3.72;;;;;;;19.80;60.26;99704.78;4378454;32;20182;-88
2023/04/30 08:35:12;;;;;;;6.30;3.30;;;;;;;19.98;60.27;99693.88;4365736;32;20095;-87
2023/04/30 08:37:37;;;;;;;5.72;3.40;;;;;;;20.30;60.29;99699.47;4379742;32;20134;-89
2023/04/30 08:40:03;;;;;;;4.18;2.85;;;;;;;20.20;60.28;99689.59;4353490;32;20125;-86
2023/04/30 08:42:30;;;;;;;4.00;2.20;;;;;;;20.21;60.28;99696.56;4368388;32;20107;-87
2023/04/30 08:44:55;;;;;;;3.75;2.67;;;;;;;20.11;60.29;99705.25;4368355;32;20113;-88
2023/04/30 08:47:22;;;;;;;4.20;2.85;;;;;;;20.13;60.28;99695.44;4353849;32;20162;-92
2023/04/30 08:49:47;;;;;;;3.17;2.17;;;;;;;20.18;60.29;99693.28;4341247;32;20181;-88
2023/04/30 08:52:13;;;;;;;3.80;2.30;;;;;;;20.43;60.30;99690.56;4365764;32;20091;-88
2023/04/30 08:54:38;;;;;;;3.45;2.33;;;;;;;20.70;60.32;99687.69;4352773;32;28982;-88
2023/04/30 08:57:04;;;;;;;4.87;2.35;;;;;;;20.79;60.32;99683.50;4365597;32;20118;-88
2023/04/30 08:59:29;;;;;;;2.97;1.98;;;;;;;21.20;60.34;99688.28;4340820;32;20136;-87
2023/04/30 09:01:55;;;;;;;2.50;2.12;;;;;;;21.11;60.33;99681.06;4340822;32;20139;-88
2023/04/30 09:04:21;;;;;;;3.78;2.17;;;;;;;20.97;60.33;99682.09;4377568;32;20103;-88
2023/04/30 09:06:46;;;;;;;2.17;1.52;;;;;;;20.80;60.32;99688.66;4365279;32;20449;-89
2023/04/30 09:09:12;;;;;;;1.85;1.37;;;;;;;20.85;60.33;99693.63;4378960;32;20155;-88
2023/04/30 09:11:38;;;;;;;3.40;2.10;;;;;;;20.81;60.32;99694.81;4340416;32;20098;-90
2023/04/30 09:14:03;;;;;;;2.25;1.98;;;;;;;21.04;60.33;99690.41;4352793;32;20425;-89
2023/04/30 09:16:43;;;;;;;5.30;2.28;;;;;;;21.09;60.34;99683.84;4353077;32;20149;-89
2023/04/30 09:19:08;;;;;;;2.72;2.08;;;;;;;20.97;60.33;99694.50;4343390;32;20445;-91
2023/04/30 09:21:34;;;;;;;3.65;1.90;;;;;;;20.70;60.31;99697.41;4353144;32;20129;-88
2023/04/30 09:24:01;;;;;;;3.45;2.50;;;;;;;21.00;60.33;99692.47;4340137;32;20169;-87
2023/04/30 09:26:37;;;;;;;4.40;2.95;;;;;;;21.20;60.34;99680.34;4352804;32;20594;-89
2023/04/30 09:29:06;;;;;;;3.00;2.58;;;;;;;21.31;60.35;99675.13;4365163;32;20130;-89
2023/04/30 09:31:32;;;;;;;4.68;2.55;;;;;;;21.47;60.35;99679.19;4353273;32;20116;-89
2023/04/30 09:33:58;;;;;;;3.20;2.03;;;;;;;21.43;60.36;99683.91;4364905;32;20226;-89
2023/04/30 09:36:23;;;;;;;1.75;1.40;;;;;;;21.41;60.35;99676.06;4339808;32;20519;-90
2023/04/30 09:38:49;;;;;;;3.03;2.28;;;;;;;21.54;60.35;99675.13;4352157;32;20133;-90
2023/04/30 09:41:27;;;;;;;2.83;2.22;;;;;;;21.49;60.36;99675.47;4364145;32;20150;-89
2023/04/30 09:43:53;;;;;;;2.97;2.17;;;;;;;21.63;60.37;99666.44;4352452;32;20148;-89
2023/04/30 09:46:19;;;;;;;2.92;2.20;;;;;;;21.81;60.38;99672.94;4364554;32;20146;-89
2023/04/30 09:48:45;;;;;;;5.18;2.28;;;;;;;22.00;60.38;99670.50;4339902;32;20125;-89
2023/04/30 09:51:10;;;;;;;2.75;1.80;;;;;;;22.16;60.39;99659.53;4364455;32;20094;-90
2023/04/30 09:53:37;;;;;;;2.87;1.62;;;;;;;22.20;60.40;99668.91;4339746;32;20421;-87
2023/04/30 09:56:02;;;;;;;2.60;1.83;;;;;;;22.23;60.40;99670.47;4352194;32;20535;-90
2023/04/30 09:58:28;;;;;;;2.22;1.60;;;;;;;22.04;60.39;99658.72;4339701;32;20118;-87
2023/04/30 10:00:53;;;;;;;8.80;2.08;;;;;;;22.19;60.40;99661.91;4352197;32;20127;-89
2023/04/30 10:03:19;;;;;;;2.15;1.50;;;;;;;22.33;60.41;99659.00;4352012;32;20409;-89
2023/04/30 10:05:48;;;;;;;1.83;1.48;;;;;;;22.36;60.40;99661.41;4363920;32;23169;-88
2023/04/30 10:08:26;;;;;;;2.70;1.60;;;;;;;22.28;60.40;99663.00;4364937;32;20119;-89
2023/04/30 10:11:01;;;;;;;4.15;2.00;;;;;;;22.52;60.41;99660.97;4376461;32;20095;-89
2023/04/30 10:13:30;;;;;;;2.67;1.80;;;;;;;22.68;60.42;99656.06;4352627;32;20380;-91
2023/04/30 10:15:57;;;;;;;2.53;1.67;;;;;;;22.80;60.44;99656.88;4352392;32;20142;-88
2023/04/30 10:18:27;;;;;;;5.70;1.85;;;;;;;22.83;60.43;99653.97;4364557;32;20149;-89
2023/04/30 10:20:53;;;;;;;;;;;;;;;22.81;60.44;99657.69;4364840;32;20091;-89
2023/04/30 10:23:18;;;;;;;3.72;1.87;;;;;;;22.72;60.43;99648.72;4383801;32;20275;-89
2023/04/30 10:25:44;;;;;;;2.65;1.77;;;;;;;22.79;60.44;99649.87;4379848;32;20106;-90
2023/04/30 10:28:09;;;;;;;2.25;1.77;;;;;;;22.80;60.44;99656.88;4376900;32;28678;-89
2023/04/30 10:30:35;;;;;;;1.80;1.50;;;;;;;22.96;60.44;99656.44;4351698;32;20476;-90
2023/04/30 10:33:06;;;;;;;2.58;1.60;;;;;;;23.01;60.44;99650.75;4377110;32;20091;-90
2023/04/30 10:35:44;;;;;;;2.25;1.70;;;;;;;22.91;60.44;99648.84;4364469;32;20098;-87
2023/04/30 10:38:15;;;;;;;1.77;1.48;;;;;;;22.72;60.43;99651.37;4340221;32;20204;-88
2023/04/30 10:40:44;;;;;;;2.55;1.58;;;;;;;23.19;60.46;99654.50;4352853;32;20090;-88
2023/04/30 10:43:10;;;;;;;2.92;1.50;;;;;;;22.98;60.45;99645.69;4353087;32;20105;-89
2023/04/30 10:45:36;;;;;;;1.80;1.25;;;;;;;22.73;60.43;99645.09;4339418;32;20103;-88
2023/04/30 10:48:02;;;;;;;2.87;1.73;;;;;;;22.83;60.43;99648.66;4351970;32;20218;-88
2023/04/30 10:50:31;;;;;;;1.70;1.30;;;;;;;23.01;60.44;99642.78;4351909;32;20184;-89
2023/04/30 10:53:03;;;;;;;1.62;1.12;;;;;;;22.84;60.43;99647.69;4350155;32;30104;-88
2023/04/30 10:55:29;;;;;;;1.52;1.20;;;;;;;22.75;60.43;99650.25;4364122;32;20103;-89
2023/04/30 10:57:54;;;;;;;1.80;1.30;;;;;;;22.96;60.44;99645.84;4364290;32;20169;-87
2023/04/30 11:00:24;;;;;;;1.35;1.15;;;;;;;23.02;60.44;99645.31;4377358;32;20098;-89
2023/04/30 11:02:54;;;;;;;1.87;1.23;;;;;;;23.05;60.46;99645.03;4339362;32;20079;-89
2023/04/30 11:05:21;;;;;;;;;;;;;;;23.33;60.46;99638.19;4339540;32;20165;-90
2023/04/30 11:07:55;;;;;;;2.08;1.30;;;;;;;23.67;60.48;99622.00;4363851;32;19998;-89
2023/04/30 11:10:22;;;;;;;5.05;1.40;;;;;;;23.58;60.48;99627.13;4378479;32;20471;-89
2023/04/30 11:12:48;;;;;;;2.00;1.10;;;;;;;23.51;60.48;99633.09;4364575;32;20116;-86
2023/04/30 11:15:16;;;;;;;2.15;1.30;;;;;;;23.02;60.44;99642.66;4352115;32;20471;-88
2023/04/30 11:17:45;;;;;;;1.70;1.40;;;;;;;23.01;60.44;99630.34;4352722;32;20172;-87
2023/04/30 11:20:12;;;;;;;3.58;1.60;;;;;;;23.07;60.44;99636.94;4352498;32;20103;-86
2023/04/30 11:22:37;;;;;;;2.05;1.23;;;;;;;23.40;60.46;99630.53;4378639;32;20160;-88
2023/04/30 11:25:09;;;;;;;3.45;1.60;;;;;;;23.65;60.47;99650.50;4364367;32;20448;-89
2023/04/30 11:27:36;;;;;;;2.05;1.25;;;;;;;23.58;60.48;99648.38;4364618;32;20192;-88